Time;durP1;ratioP1;P1;durP2;ratioP2;P2;SDS_P1;SDS_P2;PMS_P1;PMS_P2;Temp;Humidity;BMP_temperature;BMP_pressure;BME280_temperature;BME280_humidity;BME280_pressure;Samples;Min_cycle;Max_cycle;Signal;HPM_P1;HPM_P2
2022/03/04 00:01:58;;;;;;;10.80;4.28;;;7.70;91.90;;;;;;5058101;28;20063;-46
2022/03/04 00:04:24;;;;;;;13.77;4.10;;;7.60;91.90;;;;;;5058087;28;20024;-44
2022/03/04 00:06:50;;;;;;;13.57;5.20;;;7.60;91.80;;;;;;5058158;28;20021;-44
2022/03/04 00:09:16;;;;;;;10.32;4.13;;;7.60;91.80;;;;;;5057892;28;20028;-44
2022/03/04 00:11:42;;;;;;;17.30;4.90;;;7.60;91.70;;;;;;5057915;28;20047;-44
2022/03/04 00:14:08;;;;;;;12.45;5.10;;;7.60;91.80;;;;;;5058066;28;20104;-44
2022/03/04 00:16:34;;;;;;;12.23;4.38;;;7.50;91.80;;;;;;5058029;28;20029;-44
2022/03/04 00:19:07;;;;;;;11.23;3.90;;;7.60;92.10;;;;;;5057965;28;20590;-46
2022/03/04 00:21:41;;;;;;;10.95;4.00;;;7.50;92.00;;;;;;5057660;28;20070;-45
2022/03/04 00:24:09;;;;;;;12.10;3.00;;;7.50;92.00;;;;;;5057841;28;20029;-44
2022/03/04 00:26:37;;;;;;;13.27;3.88;;;7.50;91.80;;;;;;5057837;28;20076;-45
2022/03/04 00:29:05;;;;;;;11.55;3.70;;;7.50;92.10;;;;;;5057597;28;20021;-43
2022/03/04 00:31:32;;;;;;;12.27;3.15;;;7.50;91.90;;;;;;5057362;28;20025;-44
2022/03/04 00:33:58;;;;;;;9.20;3.42;;;7.50;92.00;;;;;;5057845;28;20025;-44
2022/03/04 00:36:24;;;;;;;9.68;3.10;;;7.50;91.60;;;;;;5057507;28;20052;-44
2022/03/04 00:38:54;;;;;;;10.35;2.97;;;7.40;91.70;;;;;;5057651;28;20025;-44
2022/03/04 00:41:22;;;;;;;11.95;3.03;;;7.40;91.90;;;;;;5057779;28;20442;-45
2022/03/04 00:43:49;;;;;;;9.45;2.83;;;7.30;91.70;;;;;;5057619;28;20238;-45
2022/03/04 00:46:15;;;;;;;10.68;2.95;;;7.30;91.80;;;;;;5057369;28;20052;-45
2022/03/04 00:48:41;;;;;;;11.68;2.90;;;7.30;91.80;;;;;;5056740;28;20035;-45
2022/03/04 00:51:07;;;;;;;10.85;3.25;;;7.20;91.60;;;;;;5057734;28;20029;-45
2022/03/04 00:53:33;;;;;;;7.72;2.40;;;7.20;91.60;;;;;;5057292;28;20505;-44
2022/03/04 00:55:59;;;;;;;14.05;3.42;;;7.20;91.60;;;;;;5057473;28;20033;-46
2022/03/04 00:58:25;;;;;;;7.22;2.45;;;7.20;91.90;;;;;;5057318;28;20027;-43
2022/03/04 01:00:51;;;;;;;8.15;2.55;;;7.10;91.60;;;;;;5057420;28;20560;-44
2022/03/04 01:03:17;;;;;;;12.95;2.97;;;7.10;91.60;;;;;;5057279;28;20479;-45
2022/03/04 01:05:43;;;;;;;7.88;2.58;;;7.10;91.80;;;;;;5057279;28;20047;-44
2022/03/04 01:08:09;;;;;;;10.95;3.47;;;7.10;91.90;;;;;;5057182;28;20572;-44
2022/03/04 01:10:35;;;;;;;13.32;3.70;;;7.00;91.90;;;;;;5057404;28;20043;-45
2022/03/04 01:13:01;;;;;;;11.23;4.70;;;7.10;91.90;;;;;;5057303;28;20028;-45
2022/03/04 01:15:27;;;;;;;10.13;3.83;;;7.10;91.80;;;;;;5057361;28;20500;-44
2022/03/04 01:17:53;;;;;;;15.68;3.88;;;7.00;91.60;;;;;;5057006;28;20017;-43
2022/03/04 01:20:19;;;;;;;13.63;4.10;;;7.00;91.80;;;;;;5057087;28;20028;-44
2022/03/04 01:22:45;;;;;;;13.02;4.22;;;6.90;91.70;;;;;;5056775;28;20448;-46
2022/03/04 01:25:11;;;;;;;11.25;3.33;;;7.00;91.60;;;;;;5057172;28;20033;-45
2022/03/04 01:27:37;;;;;;;12.07;2.83;;;6.90;91.70;;;;;;5057114;28;20050;-44
2022/03/04 01:30:05;;;;;;;11.27;4.13;;;6.90;91.70;;;;;;5056892;28;20040;-44
2022/03/04 01:32:32;;;;;;;6.05;2.45;;;6.90;91.70;;;;;;5057099;28;20029;-46
2022/03/04 01:34:58;;;;;;;8.20;2.60;;;6.90;91.90;;;;;;5056880;28;20108;-44
2022/03/04 01:37:24;;;;;;;12.82;3.63;;;6.80;91.80;;;;;;5056952;28;20048;-44
2022/03/04 01:39:50;;;;;;;9.00;3.05;;;6.80;91.90;;;;;;5056871;28;20429;-44
2022/03/04 01:42:16;;;;;;;14.75;3.22;;;6.80;92.00;;;;;;5056894;28;20021;-45
2022/03/04 01:44:42;;;;;;;12.63;3.55;;;6.90;91.90;;;;;;5056933;28;20025;-45
2022/03/04 01:47:08;;;;;;;10.88;3.40;;;6.90;91.70;;;;;;5057266;28;20504;-45
2022/03/04 01:49:35;;;;;;;11.77;3.55;;;6.80;91.70;;;;;;5056921;28;20044;-45
2022/03/04 01:52:01;;;;;;;10.68;3.42;;;6.80;92.00;;;;;;5056761;28;20079;-45
2022/03/04 01:54:27;;;;;;;13.20;3.67;;;6.80;91.80;;;;;;5056756;28;20080;-46
2022/03/04 01:56:53;;;;;;;12.77;4.30;;;6.80;91.90;;;;;;5056527;28;20497;-44
2022/03/04 01:59:18;;;;;;;12.52;4.35;;;6.80;91.90;;;;;;5057920;28;20060;-44
2022/03/04 02:01:44;;;;;;;15.32;5.13;;;6.80;92.10;;;;;;5060448;28;20114;-43
2022/03/04 02:04:10;;;;;;;16.02;4.00;;;6.80;91.90;;;;;;5060186;28;20025;-44
2022/03/04 02:06:36;;;;;;;15.10;4.45;;;6.80;91.90;;;;;;5060667;28;20021;-43
2022/03/04 02:09:03;;;;;;;10.95;3.45;;;6.80;92.00;;;;;;5060315;28;20055;-44
2022/03/04 02:11:28;;;;;;;21.20;4.95;;;6.80;91.90;;;;;;5060728;28;20024;-44
2022/03/04 02:13:54;;;;;;;13.02;3.58;;;6.90;91.60;;;;;;5060298;28;20358;-46
2022/03/04 02:16:34;;;;;;;14.85;4.45;;;6.80;91.70;;;;;;5060244;28;20025;-44
2022/03/04 02:19:01;;;;;;;15.82;5.20;;;6.80;91.90;;;;;;5059878;28;20029;-45
2022/03/04 02:21:29;;;;;;;15.77;4.38;;;6.80;92.10;;;;;;5059527;28;20029;-45
2022/03/04 02:23:55;;;;;;;17.80;4.35;;;6.90;92.30;;;;;;5059883;28;20029;-44
2022/03/04 02:26:21;;;;;;;10.02;3.50;;;6.90;92.20;;;;;;5060145;28;20029;-43
2022/03/04 02:28:46;;;;;;;12.38;3.72;;;6.90;92.10;;;;;;5060024;28;20155;-45
2022/03/04 02:31:20;;;;;;;13.95;3.72;;;7.00;92.20;;;;;;5060001;28;20037;-44
2022/03/04 02:33:47;;;;;;;15.68;2.72;;;6.90;92.10;;;;;;5060138;28;20017;-43
2022/03/04 02:36:14;;;;;;;18.00;3.20;;;7.00;92.00;;;;;;5059895;28;20032;-45
2022/03/04 02:38:40;;;;;;;11.30;2.97;;;7.00;92.10;;;;;;5059659;28;20105;-44
2022/03/04 02:41:06;;;;;;;9.70;2.80;;;7.00;92.10;;;;;;5059588;28;20053;-44
2022/03/04 02:43:32;;;;;;;11.45;2.85;;;7.00;92.10;;;;;;5059633;28;20032;-45
2022/03/04 02:45:58;;;;;;;9.85;2.45;;;7.00;92.20;;;;;;5059514;28;20079;-44
2022/03/04 02:48:24;;;;;;;12.93;2.97;;;7.00;92.20;;;;;;5059423;28;20404;-45
2022/03/04 02:50:50;;;;;;;12.25;2.90;;;7.10;91.90;;;;;;5059383;28;20104;-44
2022/03/04 02:53:16;;;;;;;12.63;2.60;;;7.10;92.20;;;;;;5059574;28;20025;-44
2022/03/04 02:55:42;;;;;;;11.98;3.03;;;7.10;92.00;;;;;;5059783;28;20472;-44
2022/03/04 02:58:08;;;;;;;9.40;2.25;;;7.10;92.20;;;;;;5059707;28;20028;-46
2022/03/04 03:00:34;;;;;;;13.02;2.45;;;7.10;92.10;;;;;;5059559;28;20084;-43
2022/03/04 03:03:00;;;;;;;12.07;2.60;;;7.10;92.20;;;;;;5059248;28;20082;-43
2022/03/04 03:05:26;;;;;;;11.80;3.92;;;7.20;92.20;;;;;;5059371;28;20017;-44
2022/03/04 03:07:52;;;;;;;9.45;2.80;;;7.20;92.00;;;;;;5059097;28;20017;-43
2022/03/04 03:10:17;;;;;;;9.90;2.75;;;7.20;92.00;;;;;;5058925;28;20100;-43
2022/03/04 03:12:43;;;;;;;12.00;3.33;;;7.20;92.00;;;;;;5058621;28;20045;-44
2022/03/04 03:15:11;;;;;;;10.07;2.88;;;7.20;92.10;;;;;;5059348;28;20085;-44
2022/03/04 03:17:37;;;;;;;13.57;2.85;;;7.20;92.10;;;;;;5058823;28;20081;-44
2022/03/04 03:20:05;;;;;;;7.38;2.42;;;7.20;92.20;;;;;;5058781;28;20037;-44
2022/03/04 03:22:31;;;;;;;10.85;2.97;;;7.30;92.10;;;;;;5058734;28;20049;-44
2022/03/04 03:24:57;;;;;;;12.68;3.15;;;7.30;92.20;;;;;;5058868;28;20035;-43
2022/03/04 03:27:23;;;;;;;13.00;3.10;;;7.30;92.20;;;;;;5058803;28;20051;-46
2022/03/04 03:29:49;;;;;;;8.95;2.50;;;7.20;92.10;;;;;;5058862;28;20117;-45
2022/03/04 03:32:15;;;;;;;12.50;3.17;;;7.20;92.20;;;;;;5058687;28;20025;-44
2022/03/04 03:34:41;;;;;;;9.70;2.90;;;7.20;92.10;;;;;;5058555;28;20451;-44
2022/03/04 03:37:09;;;;;;;13.02;3.15;;;7.20;91.90;;;;;;5058582;28;20036;-44
2022/03/04 03:39:35;;;;;;;11.23;2.80;;;7.10;91.90;;;;;;5058495;28;20033;-44
2022/03/04 03:42:01;;;;;;;12.27;2.50;;;7.10;91.90;;;;;;5058415;28;20100;-44
2022/03/04 03:44:27;;;;;;;11.38;2.45;;;7.10;92.00;;;;;;5058359;28;20108;-44
2022/03/04 03:46:53;;;;;;;14.90;2.80;;;7.10;91.80;;;;;;5058356;28;20049;-44
2022/03/04 03:49:19;;;;;;;9.85;2.10;;;7.00;91.90;;;;;;5058262;28;20028;-44
2022/03/04 03:51:45;;;;;;;9.15;2.83;;;6.90;91.60;;;;;;5058273;28;20022;-44
2022/03/04 03:54:11;;;;;;;8.68;2.15;;;6.90;91.70;;;;;;5058157;28;20031;-44
2022/03/04 03:56:36;;;;;;;8.65;2.22;;;6.80;91.70;;;;;;5058212;28;20020;-45
2022/03/04 03:59:03;;;;;;;9.90;2.67;;;6.80;91.80;;;;;;5058271;28;20465;-46
2022/03/04 04:01:29;;;;;;;8.32;2.33;;;6.70;92.00;;;;;;5058218;28;20059;-46
2022/03/04 04:03:54;;;;;;;7.10;2.15;;;6.70;91.70;;;;;;5057941;28;20032;-45
2022/03/04 04:06:20;;;;;;;9.73;2.05;;;6.60;91.80;;;;;;5058161;28;20059;-45
2022/03/04 04:08:46;;;;;;;8.25;1.90;;;6.60;91.70;;;;;;5058139;28;20021;-46
2022/03/04 04:11:13;;;;;;;8.65;2.10;;;6.60;91.80;;;;;;5058047;28;20025;-44
2022/03/04 04:13:38;;;;;;;9.88;2.33;;;6.50;91.60;;;;;;5058054;28;20076;-45
2022/03/04 04:16:04;;;;;;;9.88;1.80;;;6.50;91.80;;;;;;5057779;28;20094;-45
2022/03/04 04:18:30;;;;;;;4.20;2.00;;;6.50;91.90;;;;;;5057720;28;20029;-47
2022/03/04 04:20:56;;;;;;;8.65;2.15;;;6.40;91.80;;;;;;5057887;28;20033;-44
2022/03/04 04:23:22;;;;;;;6.68;2.15;;;6.40;91.80;;;;;;5057208;28;20099;-45
2022/03/04 04:25:48;;;;;;;7.53;1.88;;;6.30;91.60;;;;;;5057660;28;20048;-45
2022/03/04 04:28:13;;;;;;;8.98;2.55;;;6.30;91.60;;;;;;5057559;28;20017;-44
2022/03/04 04:30:39;;;;;;;13.00;2.65;;;6.30;91.70;;;;;;5058062;28;20377;-44
2022/03/04 04:33:05;;;;;;;6.63;1.90;;;6.20;91.80;;;;;;5057514;28;20127;-43
2022/03/04 04:35:31;;;;;;;6.30;1.90;;;6.20;91.80;;;;;;5057881;28;20043;-45
2022/03/04 04:37:57;;;;;;;9.93;2.25;;;6.20;91.80;;;;;;5057462;28;20040;-44
2022/03/04 04:40:23;;;;;;;11.43;2.40;;;6.20;91.70;;;;;;5057549;28;20159;-44
2022/03/04 04:42:49;;;;;;;7.90;2.20;;;6.10;91.80;;;;;;5057371;28;20040;-43
2022/03/04 04:45:15;;;;;;;12.55;2.20;;;6.10;91.70;;;;;;5057571;28;20021;-44
2022/03/04 04:47:41;;;;;;;9.20;1.92;;;6.10;91.70;;;;;;5057670;28;20048;-44
2022/03/04 04:50:07;;;;;;;8.48;2.38;;;6.10;91.80;;;;;;5057290;28;20082;-45
2022/03/04 04:52:33;;;;;;;5.97;2.10;;;6.10;91.70;;;;;;5057640;28;20498;-43
2022/03/04 04:54:59;;;;;;;6.35;2.20;;;6.00;91.60;;;;;;5057485;28;20207;-44
2022/03/04 04:57:25;;;;;;;5.05;1.90;;;6.00;91.50;;;;;;5055827;28;20040;-43
2022/03/04 04:59:51;;;;;;;10.93;2.20;;;5.90;91.50;;;;;;5057467;28;20052;-44
2022/03/04 05:02:17;;;;;;;6.03;2.75;;;5.90;91.60;;;;;;5057626;28;20473;-44
2022/03/04 05:04:42;;;;;;;8.82;2.15;;;5.90;91.70;;;;;;5056880;28;20056;-46
2022/03/04 05:07:09;;;;;;;8.10;1.90;;;5.90;91.60;;;;;;5057111;28;20036;-44
2022/03/04 05:09:35;;;;;;;6.93;2.03;;;5.90;91.60;;;;;;5057204;28;20074;-46
2022/03/04 05:12:00;;;;;;;5.40;2.15;;;5.80;91.50;;;;;;5057305;28;20029;-45
2022/03/04 05:14:26;;;;;;;6.32;2.15;;;5.80;91.50;;;;;;5057111;28;20031;-45
2022/03/04 05:16:52;;;;;;;7.10;1.73;;;5.80;91.60;;;;;;5057062;28;20029;-47
2022/03/04 05:19:18;;;;;;;9.93;2.65;;;5.80;91.70;;;;;;5057494;28;20029;-43
2022/03/04 05:21:43;;;;;;;11.38;2.28;;;5.70;91.60;;;;;;5057146;28;20060;-44
2022/03/04 05:24:11;;;;;;;14.05;2.40;;;5.70;91.70;;;;;;5056993;28;20029;-43
2022/03/04 05:26:40;;;;;;;7.57;1.98;;;5.70;91.90;;;;;;5057162;28;20037;-43
2022/03/04 05:29:12;;;;;;;6.70;1.90;;;5.80;92.00;;;;;;5057060;28;20020;-45
2022/03/04 05:31:42;;;;;;;10.02;1.63;;;5.80;91.60;;;;;;5056896;28;20021;-44
2022/03/04 05:34:09;;;;;;;7.78;2.00;;;5.80;91.90;;;;;;5057441;28;20036;-46
2022/03/04 05:36:37;;;;;;;5.93;1.88;;;5.80;91.90;;;;;;5060509;28;20033;-46
2022/03/04 05:39:03;;;;;;;8.95;2.30;;;5.70;91.80;;;;;;5060798;28;20029;-44
2022/03/04 05:41:29;;;;;;;6.72;2.00;;;5.80;91.90;;;;;;5061064;28;20039;-46
2022/03/04 05:43:55;;;;;;;10.25;2.40;;;5.80;92.00;;;;;;5060256;28;20107;-44
2022/03/04 05:46:21;;;;;;;14.20;2.60;;;5.80;92.00;;;;;;5060746;28;20033;-44
2022/03/04 05:48:46;;;;;;;7.00;1.98;;;5.80;91.80;;;;;;5060714;28;20013;-44
2022/03/04 05:51:13;;;;;;;8.57;2.05;;;5.80;91.70;;;;;;5060786;28;20599;-45
2022/03/04 05:53:38;;;;;;;9.23;3.10;;;5.80;91.80;;;;;;5060202;28;20047;-45
2022/03/04 05:56:08;;;;;;;10.30;2.70;;;5.80;91.60;;;;;;5060482;28;20028;-44
2022/03/04 05:58:35;;;;;;;7.95;2.05;;;5.80;91.50;;;;;;5058969;28;20063;-44
2022/03/04 06:01:02;;;;;;;10.10;2.92;;;5.70;91.70;;;;;;5059824;28;20021;-45
2022/03/04 06:03:28;;;;;;;6.70;2.08;;;5.80;91.70;;;;;;5059993;28;20131;-44
2022/03/04 06:05:54;;;;;;;11.93;2.17;;;5.80;91.80;;;;;;5060576;28;20025;-43
2022/03/04 06:08:20;;;;;;;10.95;1.67;;;5.70;91.70;;;;;;5060681;28;20538;-43
2022/03/04 06:10:46;;;;;;;10.43;2.40;;;5.80;91.60;;;;;;5060454;28;20025;-43
2022/03/04 06:13:12;;;;;;;8.65;2.03;;;5.80;91.80;;;;;;5060613;28;20107;-43
2022/03/04 06:15:38;;;;;;;12.35;3.13;;;5.70;92.00;;;;;;5060306;28;20060;-44
2022/03/04 06:18:04;;;;;;;14.95;2.47;;;5.70;92.00;;;;;;5060688;28;20032;-43
2022/03/04 06:20:30;;;;;;;9.02;2.00;;;5.70;92.10;;;;;;5060661;28;20028;-43
2022/03/04 06:22:55;;;;;;;6.68;1.90;;;5.70;92.00;;;;;;5058715;28;20114;-43
2022/03/04 06:25:21;;;;;;;11.82;2.70;;;5.80;92.10;;;;;;5060145;28;20114;-43
2022/03/04 06:27:51;;;;;;;7.63;2.40;;;5.70;91.80;;;;;;5060434;28;20046;-43
2022/03/04 06:30:17;;;;;;;13.43;2.42;;;5.70;91.90;;;;;;5060059;28;20024;-43
2022/03/04 06:32:42;;;;;;;11.25;2.40;;;5.70;91.90;;;;;;5060067;28;20074;-43
2022/03/04 06:35:09;;;;;;;11.30;2.33;;;5.70;92.10;;;;;;5059951;28;20036;-43
2022/03/04 06:37:34;;;;;;;7.97;2.05;;;5.70;91.90;;;;;;5060154;28;20032;-43
2022/03/04 06:40:01;;;;;;;10.98;2.17;;;5.70;91.90;;;;;;5059920;28;20021;-43
2022/03/04 06:42:26;;;;;;;7.07;2.15;;;5.60;92.20;;;;;;5059832;28;20028;-43
2022/03/04 06:44:52;;;;;;;10.50;2.65;;;5.60;91.90;;;;;;5059916;28;20029;-43
2022/03/04 06:47:18;;;;;;;11.18;2.03;;;5.60;92.00;;;;;;5058937;28;20021;-43
2022/03/04 06:49:44;;;;;;;6.75;1.95;;;5.60;91.60;;;;;;5059950;28;20427;-43
2022/03/04 06:52:09;;;;;;;8.68;2.17;;;5.60;91.90;;;;;;5059667;28;20024;-43
2022/03/04 06:54:37;;;;;;;10.73;2.10;;;5.60;92.00;;;;;;5059711;28;20032;-44
2022/03/04 06:57:03;;;;;;;9.05;2.08;;;5.60;91.90;;;;;;5059551;28;20448;-43
2022/03/04 06:59:29;;;;;;;7.57;2.53;;;5.50;92.10;;;;;;5059781;28;20111;-43
2022/03/04 07:01:55;;;;;;;6.95;1.83;;;5.50;92.10;;;;;;5059706;28;20021;-43
2022/03/04 07:04:20;;;;;;;9.88;1.88;;;5.60;91.90;;;;;;5059403;28;20525;-43
2022/03/04 07:06:46;;;;;;;6.45;1.80;;;5.60;91.90;;;;;;5059478;28;20032;-44
2022/03/04 07:09:12;;;;;;;11.18;2.45;;;5.60;91.70;;;;;;5059595;28;20025;-43
2022/03/04 07:11:38;;;;;;;6.00;1.70;;;5.50;91.60;;;;;;5059338;28;20472;-44
2022/03/04 07:14:03;;;;;;;12.65;2.63;;;5.50;91.80;;;;;;5059290;28;20108;-43
2022/03/04 07:16:30;;;;;;;8.85;2.35;;;5.60;91.90;;;;;;5059334;28;20103;-43
2022/03/04 07:18:56;;;;;;;7.55;1.90;;;5.50;92.40;;;;;;5059384;28;20082;-43
2022/03/04 07:21:21;;;;;;;8.70;2.70;;;5.50;92.10;;;;;;5058752;28;20025;-44
2022/03/04 07:23:47;;;;;;;9.95;2.08;;;5.60;92.00;;;;;;5058972;28;20028;-43
2022/03/04 07:26:13;;;;;;;7.65;2.05;;;5.60;92.10;;;;;;5059201;28;20068;-43
2022/03/04 07:28:39;;;;;;;9.85;2.45;;;5.70;92.10;;;;;;5059417;28;20021;-43
2022/03/04 07:31:04;;;;;;;13.98;2.65;;;5.70;91.90;;;;;;5059429;28;20372;-44
2022/03/04 07:33:30;;;;;;;9.75;2.22;;;5.70;92.10;;;;;;5058840;28;20028;-43
2022/03/04 07:35:56;;;;;;;9.40;2.30;;;5.80;92.00;;;;;;5059327;28;20385;-43
2022/03/04 07:38:22;;;;;;;6.20;1.90;;;5.80;92.20;;;;;;5058774;28;20053;-43
2022/03/04 07:40:47;;;;;;;9.95;2.92;;;5.90;92.70;;;;;;5058587;28;20044;-43
2022/03/04 07:43:13;;;;;;;10.02;2.40;;;5.90;92.80;;;;;;5058619;28;20025;-43
2022/03/04 07:45:39;;;;;;;8.43;2.78;;;6.00;92.80;;;;;;5059124;28;20107;-43
2022/03/04 07:48:05;;;;;;;9.98;2.50;;;6.00;92.80;;;;;;5058613;28;20129;-43
2022/03/04 07:50:31;;;;;;;5.63;2.05;;;6.10;92.60;;;;;;5058616;28;20491;-43
2022/03/04 07:52:56;;;;;;;7.93;2.35;;;6.10;92.60;;;;;;5058492;28;20024;-43
2022/03/04 07:55:26;;;;;;;7.55;2.13;;;6.20;92.60;;;;;;5058675;28;20475;-44
2022/03/04 07:57:54;;;;;;;12.50;2.80;;;6.20;92.60;;;;;;5058049;28;20104;-44
2022/03/04 08:00:24;;;;;;;12.25;3.35;;;6.30;92.80;;;;;;5058404;28;20013;-45
2022/03/04 08:02:52;;;;;;;13.73;2.72;;;6.40;92.70;;;;;;5058353;28;20053;-44
2022/03/04 08:05:18;;;;;;;13.88;2.80;;;6.50;93.00;;;;;;5058536;28;20146;-44
2022/03/04 08:07:44;;;;;;;9.93;2.70;;;6.60;93.50;;;;;;5058346;28;20055;-44
2022/03/04 08:10:11;;;;;;;8.70;2.42;;;6.70;93.40;;;;;;5058189;28;20021;-46
2022/03/04 08:12:38;;;;;;;18.23;3.45;;;6.80;93.30;;;;;;5058274;28;20032;-45
2022/03/04 08:15:05;;;;;;;13.65;2.58;;;6.90;93.30;;;;;;5056828;28;20148;-44
2022/03/04 08:17:31;;;;;;;14.18;3.55;;;6.90;93.00;;;;;;5058124;28;20025;-47
2022/03/04 08:19:57;;;;;;;12.40;2.70;;;7.00;92.90;;;;;;5058021;28;20449;-48
2022/03/04 08:22:23;;;;;;;11.25;2.90;;;7.10;93.00;;;;;;5058095;28;20076;-46
2022/03/04 08:24:48;;;;;;;10.55;3.28;;;7.10;92.90;;;;;;5057766;28;20056;-45
2022/03/04 08:27:14;;;;;;;14.52;3.17;;;7.20;92.90;;;;;;5057516;28;20028;-45
2022/03/04 08:29:40;;;;;;;12.98;2.40;;;7.30;92.90;;;;;;5057691;28;20028;-46
2022/03/04 08:32:06;;;;;;;13.88;2.97;;;7.40;92.90;;;;;;5057423;28;20063;-46
2022/03/04 08:34:32;;;;;;;12.82;2.53;;;7.50;92.80;;;;;;5057300;28;20036;-45
2022/03/04 08:36:58;;;;;;;10.00;2.75;;;7.50;92.50;;;;;;5057475;28;20044;-49
2022/03/04 08:39:24;;;;;;;10.00;2.55;;;7.70;92.60;;;;;;5057762;28;20695;-45
2022/03/04 08:41:50;;;;;;;9.88;3.35;;;7.90;92.70;;;;;;5057322;28;20020;-47
2022/03/04 08:44:16;;;;;;;13.82;3.15;;;8.20;92.70;;;;;;5057414;28;20029;-44
2022/03/04 08:46:42;;;;;;;12.93;2.38;;;8.50;92.10;;;;;;5057555;28;20051;-44
2022/03/04 08:49:09;;;;;;;11.65;3.05;;;8.60;91.80;;;;;;5057154;28;20017;-44
2022/03/04 08:51:36;;;;;;;12.45;2.83;;;8.70;91.00;;;;;;5057900;28;20041;-45
2022/03/04 08:54:03;;;;;;;9.88;2.47;;;8.80;90.60;;;;;;5057326;28;20480;-47
2022/03/04 08:56:29;;;;;;;12.82;2.78;;;8.80;90.00;;;;;;5057580;28;20029;-44
2022/03/04 08:58:55;;;;;;;12.25;3.03;;;8.90;90.70;;;;;;5057335;28;20052;-45
2022/03/04 09:01:21;;;;;;;7.72;2.70;;;9.10;91.30;;;;;;5055906;28;20412;-45
2022/03/04 09:03:47;;;;;;;9.07;2.67;;;9.30;90.80;;;;;;5057249;28;20029;-45
2022/03/04 09:06:13;;;;;;;7.57;2.33;;;9.70;91.50;;;;;;5057428;28;20361;-45
2022/03/04 09:08:38;;;;;;;8.68;2.05;;;10.10;91.10;;;;;;5057104;28;20028;-46
2022/03/04 09:11:04;;;;;;;10.27;2.53;;;10.50;90.00;;;;;;5061242;28;20032;-49
2022/03/04 09:13:32;;;;;;;6.28;2.08;;;11.00;89.20;;;;;;5061211;28;20036;-46
2022/03/04 09:16:02;;;;;;;6.95;2.42;;;11.20;82.90;;;;;;5061009;28;20039;-45
2022/03/04 09:18:28;;;;;;;8.02;2.63;;;11.40;82.60;;;;;;5061011;28;20021;-45
2022/03/04 09:20:54;;;;;;;7.35;1.80;;;11.50;86.00;;;;;;5061278;28;20064;-46
2022/03/04 09:23:21;;;;;;;5.03;1.80;;;11.70;84.90;;;;;;5059290;28;20076;-48
2022/03/04 09:25:48;;;;;;;7.15;1.75;;;11.80;81.90;;;;;;5060983;28;20578;-45
2022/03/04 09:28:15;;;;;;;7.28;1.80;;;11.80;83.30;;;;;;5060553;28;20401;-47
2022/03/04 09:30:41;;;;;;;6.00;1.50;;;11.80;76.10;;;;;;5061214;28;20108;-53
2022/03/04 09:33:07;;;;;;;8.20;2.15;;;11.80;81.10;;;;;;5060607;28;20044;-55
2022/03/04 09:35:33;;;;;;;7.10;2.03;;;11.70;79.90;;;;;;5060949;28;20052;-55
2022/03/04 09:38:00;;;;;;;7.03;1.77;;;11.50;79.90;;;;;;5061250;28;20031;-54
2022/03/04 09:40:26;;;;;;;5.78;1.92;;;11.60;78.80;;;;;;5060865;28;20033;-52
2022/03/04 09:42:54;;;;;;;9.50;2.08;;;11.70;81.40;;;;;;5060887;28;20021;-50
2022/03/04 09:45:20;;;;;;;8.10;2.28;;;12.10;85.10;;;;;;5059794;28;20497;-49
2022/03/04 09:47:46;;;;;;;7.07;2.00;;;12.80;84.30;;;;;;5061347;28;20017;-54
2022/03/04 09:50:16;;;;;;;8.32;2.42;;;13.60;84.90;;;;;;5061000;28;20035;-52
2022/03/04 09:52:43;;;;;;;7.75;2.55;;;14.50;81.60;;;;;;5060751;28;20508;-50
2022/03/04 09:55:09;;;;;;;11.77;2.15;;;15.20;78.80;;;;;;5060569;28;20053;-52
2022/03/04 09:57:35;;;;;;;7.07;2.50;;;15.90;76.90;;;;;;5061167;28;20021;-50
2022/03/04 10:00:04;;;;;;;9.35;2.40;;;16.60;77.30;;;;;;5061142;28;20036;-51
2022/03/04 10:02:34;;;;;;;7.75;2.17;;;17.30;77.40;;;;;;5060820;28;20033;-52
2022/03/04 10:05:01;;;;;;;9.15;3.10;;;17.60;72.60;;;;;;5060355;28;20064;-51
2022/03/04 10:07:36;;;;;;;9.55;2.78;;;18.20;72.20;;;;;;5059265;28;20025;-52
2022/03/04 10:10:04;;;;;;;11.65;3.15;;;18.60;71.50;;;;;;5060522;28;20025;-51
2022/03/04 10:12:30;;;;;;;8.18;2.38;;;18.90;65.20;;;;;;5060854;28;20082;-53
2022/03/04 10:15:04;;;;;;;9.32;2.58;;;19.30;65.60;;;;;;5060198;28;20029;-53
2022/03/04 10:17:37;;;;;;;14.40;3.83;;;19.50;68.70;;;;;;5060179;28;20176;-54
2022/03/04 10:20:10;;;;;;;11.88;3.15;;;19.60;64.10;;;;;;5060120;28;20040;-52
2022/03/04 10:22:45;;;;;;;11.38;3.05;;;19.20;62.00;;;;;;5059782;28;20057;-54
2022/03/04 10:25:16;;;;;;;9.48;3.15;;;19.10;67.30;;;;;;5059693;28;20048;-51
2022/03/04 10:27:42;;;;;;;9.07;2.92;;;19.10;63.60;;;;;;5059948;28;20017;-53
2022/03/04 10:30:08;;;;;;;7.18;2.50;;;19.20;65.10;;;;;;5059809;28;20032;-53
2022/03/04 10:32:34;;;;;;;10.27;2.78;;;18.80;60.70;;;;;;5059615;28;20465;-50
2022/03/04 10:35:05;;;;;;;7.90;2.58;;;17.80;60.20;;;;;;5059764;28;20029;-53
2022/03/04 10:37:48;;;;;;;11.15;2.40;;;16.90;61.70;;;;;;5059452;28;20060;-52
2022/03/04 10:40:17;;;;;;;7.30;2.30;;;16.00;61.60;;;;;;5059615;28;20060;-52
2022/03/04 10:42:51;;;;;;;8.93;2.67;;;15.30;62.90;;;;;;5059673;28;20021;-54
2022/03/04 10:45:37;;;;;;;10.10;2.53;;;14.70;63.60;;;;;;5059117;28;20476;-51
2022/03/04 10:48:08;;;;;;;9.30;2.60;;;14.20;63.60;;;;;;5059293;28;20021;-52
2022/03/04 10:50:51;;;;;;;9.73;2.60;;;13.80;64.90;;;;;;5059664;28;20021;-52
2022/03/04 10:53:18;;;;;;;6.13;2.30;;;13.30;66.10;;;;;;5059728;28;20416;-51
2022/03/04 10:55:56;;;;;;;7.68;2.15;;;13.30;67.20;;;;;;5059618;28;20032;-49
2022/03/04 10:58:30;;;;;;;9.27;2.22;;;14.30;69.70;;;;;;5059168;28;20146;-49
2022/03/04 11:01:00;;;;;;;6.28;2.00;;;15.70;68.80;;;;;;5059110;28;20413;-48
2022/03/04 11:03:32;;;;;;;7.25;2.30;;;16.80;62.70;;;;;;5059027;28;20032;-52
2022/03/04 11:06:00;;;;;;;8.20;2.00;;;17.80;62.10;;;;;;5059474;28;20017;-49
2022/03/04 11:08:26;;;;;;;7.03;1.80;;;18.30;64.00;;;;;;5058937;28;20028;-47
2022/03/04 11:10:54;;;;;;;4.97;1.92;;;19.00;63.00;;;;;;5059089;28;20029;-49
2022/03/04 11:13:22;;;;;;;6.60;1.85;;;19.70;58.30;;;;;;5059159;28;20025;-52
2022/03/04 11:15:49;;;;;;;5.45;1.92;;;20.50;60.90;;;;;;5058983;28;20057;-49
2022/03/04 11:18:18;;;;;;;8.45;2.13;;;21.20;60.40;;;;;;5058732;28;20032;-53
2022/03/04 11:20:46;;;;;;;5.65;1.88;;;21.60;57.90;;;;;;5058756;28;20143;-53
2022/03/04 11:23:24;;;;;;;7.65;1.92;;;21.90;58.60;;;;;;5058419;28;20044;-52
2022/03/04 11:25:57;;;;;;;6.90;2.00;;;22.40;58.90;;;;;;5058739;28;20033;-54
2022/03/04 11:28:27;;;;;;;6.38;1.80;;;22.90;55.20;;;;;;5058608;28;20050;-56
2022/03/04 11:31:00;;;;;;;6.13;1.60;;;23.30;56.70;;;;;;5058652;28;20446;-54
2022/03/04 11:33:30;;;;;;;6.00;1.80;;;23.60;56.80;;;;;;5058542;28;20040;-56
2022/03/04 11:36:02;;;;;;;5.85;1.85;;;23.70;54.70;;;;;;5058325;28;20512;-55
2022/03/04 11:38:46;;;;;;;4.50;1.80;;;23.90;51.80;;;;;;5058877;28;20033;-52
2022/03/04 11:41:34;;;;;;;;;;;24.30;52.70;;;;;;5058764;28;20024;-55
2022/03/04 11:44:18;;;;;;;4.03;1.30;;;24.70;59.50;;;;;;5058204;28;20276;-52
2022/03/04 11:47:04;;;;;;;4.68;1.50;;;24.50;51.90;;;;;;5058546;28;20453;-52
2022/03/04 11:49:47;;;;;;;3.97;1.25;;;24.40;50.70;;;;;;5058186;28;20102;-53
2022/03/04 11:52:42;;;;;;;4.18;2.10;;;24.30;50.90;;;;;;5058273;28;20022;-49
2022/03/04 11:55:11;;;;;;;3.40;1.80;;;23.80;48.40;;;;;;5057841;28;20045;-53
2022/03/04 11:57:40;;;;;;;5.30;1.52;;;23.80;50.30;;;;;;5057886;28;20540;-52
2022/03/04 12:00:12;;;;;;;4.55;1.40;;;24.10;45.30;;;;;;5058310;28;20554;-54
2022/03/04 12:02:40;;;;;;;6.80;3.15;;;24.50;43.10;;;;;;5057672;28;20523;-50
2022/03/04 12:05:18;;;;;;;7.53;4.90;;;25.10;48.00;;;;;;5057745;28;20099;-52
2022/03/04 12:07:48;;;;;;;4.68;2.20;;;25.20;48.70;;;;;;5057891;28;20028;-54
2022/03/04 12:10:30;;;;;;;4.45;2.00;;;25.30;44.70;;;;;;5057644;28;20017;-53
2022/03/04 12:13:00;;;;;;;5.35;1.70;;;25.40;50.20;;;;;;5058035;28;20017;-52
2022/03/04 12:15:29;;;;;;;5.28;1.88;;;25.50;45.80;;;;;;5057781;28;20025;-53
2022/03/04 12:18:05;;;;;;;8.95;3.38;;;25.80;43.70;;;;;;5057870;28;20025;-52
2022/03/04 12:20:51;;;;;;;9.20;6.57;;;26.10;38.70;;;;;;5057867;28;20086;-51
2022/03/04 12:23:19;;;;;;;4.95;2.20;;;26.50;44.40;;;;;;5057053;28;20053;-53
2022/03/04 12:25:54;;;;;;;7.05;3.53;;;26.40;42.70;;;;;;5057981;28;20020;-51
2022/03/04 12:28:39;;;;;;;11.15;10.07;;;26.70;48.20;;;;;;5057468;28;20495;-51
2022/03/04 12:31:05;;;;;;;5.25;2.30;;;26.40;42.50;;;;;;5057503;28;20025;-51
2022/03/04 12:33:33;;;;;;;5.75;3.65;;;25.90;41.40;;;;;;5057449;28;20033;-50
2022/03/04 12:36:00;;;;;;;3.97;2.80;;;26.00;45.90;;;;;;5057691;28;20029;-53
2022/03/04 12:38:27;;;;;;;5.10;1.90;;;26.50;43.70;;;;;;5057047;28;20021;-53
2022/03/04 12:40:57;;;;;;;4.30;1.90;;;26.50;41.80;;;;;;5057546;28;20024;-52
2022/03/04 12:43:23;;;;;;;3.08;1.20;;;26.50;36.40;;;;;;5056720;28;20036;-52
2022/03/04 12:45:50;;;;;;;3.67;1.30;;;26.50;40.90;;;;;;5056843;28;20025;-53
2022/03/04 12:48:18;;;;;;;2.53;1.00;;;26.40;33.60;;;;;;5057383;28;20496;-53
2022/03/04 12:50:43;;;;;;;2.53;1.10;;;26.70;39.80;;;;;;5056966;28;20029;-51
2022/03/04 12:53:24;;;;;;;7.50;2.03;;;27.30;41.40;;;;;;5057377;28;20037;-51